Time;durP1;ratioP1;P1;durP2;ratioP2;P2;SDS_P1;SDS_P2;PMS_P1;PMS_P2;Temp;Humidity;BMP_temperature;BMP_pressure;BME280_temperature;BME280_humidity;BME280_pressure;Samples;Min_cycle;Max_cycle;Signal;HPM_P1;HPM_P2
2022/10/30 00:00:34;;;;;;;16.55;7.60;;;;;;;14.80;82.41;101603.75;5093145;28;20020;-81
2022/10/30 00:03:00;;;;;;;21.85;7.50;;;;;;;14.77;82.74;101604.88;5096920;28;20032;-81
2022/10/30 00:05:26;;;;;;;16.65;7.18;;;;;;;14.75;82.86;101605.97;5100965;28;20112;-82
2022/10/30 00:07:54;;;;;;;18.73;7.50;;;;;;;14.74;82.52;101612.31;5098935;28;20032;-82
2022/10/30 00:10:19;;;;;;;13.07;7.13;;;;;;;14.70;82.67;101605.50;5112966;28;20023;-82
2022/10/30 00:12:44;;;;;;;20.13;7.72;;;;;;;14.70;83.09;101613.53;5110145;28;20036;-82
2022/10/30 00:15:10;;;;;;;14.43;6.90;;;;;;;14.64;82.92;101612.22;5098912;28;20071;-83
2022/10/30 00:17:35;;;;;;;16.95;7.13;;;;;;;14.64;83.10;101611.34;5100677;28;20024;-82
2022/10/30 00:20:01;;;;;;;20.88;7.78;;;;;;;14.63;82.88;101612.34;5119633;28;20032;-82
2022/10/30 00:22:26;;;;;;;17.83;7.65;;;;;;;14.64;82.81;101622.03;5103126;28;20044;-81
2022/10/30 00:24:51;;;;;;;15.95;7.68;;;;;;;14.56;83.63;101606.59;5099285;28;20020;-81
2022/10/30 00:27:17;;;;;;;15.15;7.10;;;;;;;14.57;83.61;101610.97;5079264;28;20058;-82
2022/10/30 00:29:42;;;;;;;15.57;7.55;;;;;;;14.56;83.34;101617.31;5101070;28;20031;-82
2022/10/30 00:32:14;;;;;;;18.23;7.25;;;;;;;14.53;83.50;101609.53;5122977;28;20024;-81
2022/10/30 00:34:39;;;;;;;17.17;7.00;;;;;;;14.50;83.98;101607.94;5095537;28;20036;-81
2022/10/30 00:37:04;;;;;;;20.97;7.40;;;;;;;14.47;84.34;101604.66;5115815;28;20065;-81
2022/10/30 00:39:29;;;;;;;18.33;7.30;;;;;;;14.43;84.13;101601.41;5096585;28;20278;-82
2022/10/30 00:41:55;;;;;;;16.35;7.60;;;;;;;14.38;83.61;101598.25;5089232;28;20086;-81
2022/10/30 00:44:43;;;;;;;18.33;7.13;;;;;;;14.36;83.50;101603.72;5093190;28;20382;-82
2022/10/30 00:47:19;;;;;;;24.00;7.38;;;;;;;14.37;83.96;101605.44;5091213;28;20110;-81
2022/10/30 00:49:52;;;;;;;13.23;7.38;;;;;;;14.31;84.76;101599.72;5162200;22;20033;-52
2022/10/30 00:52:21;;;;;;;17.25;7.72;;;;;;;14.27;84.98;101596.44;5117232;28;20020;-47
2022/10/30 00:54:47;;;;;;;16.58;7.38;;;;;;;14.24;85.04;101597.53;5113631;28;20036;-51
2022/10/30 00:57:12;;;;;;;16.50;7.03;;;;;;;14.23;84.76;101595.81;5117757;28;20054;-51
2022/10/30 00:59:38;;;;;;;14.18;7.05;;;;;;;14.21;85.05;101597.78;5120547;28;20042;-51
2022/10/30 01:02:04;;;;;;;19.60;8.10;;;;;;;14.18;84.57;101598.03;5123465;28;20013;-51
2022/10/30 01:04:32;;;;;;;16.67;7.68;;;;;;;14.17;85.54;101598.13;5129076;28;20035;-49
2022/10/30 01:06:58;;;;;;;17.23;7.68;;;;;;;14.14;85.01;101599.25;5119446;28;20092;-49
2022/10/30 01:09:24;;;;;;;21.50;8.23;;;;;;;14.12;85.81;101603.00;5120267;28;20035;-52
2022/10/30 01:11:49;;;;;;;14.02;7.15;;;;;;;14.08;85.46;101597.06;5120603;28;20009;-51
2022/10/30 01:14:18;;;;;;;15.77;7.40;;;;;;;14.05;85.13;101598.16;5120478;28;20026;-49
2022/10/30 01:16:59;;;;;;;17.27;7.53;;;;;;;14.05;85.07;101602.63;5120539;28;20024;-52
2022/10/30 01:19:43;;;;;;;24.65;7.57;;;;;;;14.04;86.03;101607.16;5111812;28;20035;-51
2022/10/30 01:22:24;;;;;;;18.55;7.00;;;;;;;14.00;86.13;101607.50;5116872;28;20019;-50
2022/10/30 01:25:02;;;;;;;14.80;7.47;;;;;;;13.98;86.16;101609.44;5113720;28;20016;-51
2022/10/30 01:27:52;;;;;;;14.05;7.80;;;;;;;13.95;85.72;101609.69;5120886;28;20015;-51
2022/10/30 01:30:38;;;;;;;14.77;7.60;;;;;;;13.94;86.22;101606.19;5111329;28;20035;-52
2022/10/30 01:33:38;;;;;;;18.67;7.68;;;;;;;13.94;85.93;101610.66;5107661;28;20012;-53
2022/10/30 01:36:23;;;;;;;14.77;6.75;;;;;;;13.90;86.68;101612.72;5119616;28;20049;-50
2022/10/30 01:38:57;;;;;;;16.02;6.57;;;;;;;13.85;86.06;101621.06;5120679;28;20020;-50
2022/10/30 01:41:22;;;;;;;16.10;7.38;;;;;;;13.83;86.78;101615.00;5120169;28;20023;-50
2022/10/30 01:43:51;;;;;;;17.83;7.55;;;;;;;13.82;87.29;101612.47;5102115;28;20024;-50
2022/10/30 01:46:46;;;;;;;14.80;7.40;;;;;;;13.79;87.20;101610.91;5119682;28;20026;-50
2022/10/30 01:49:30;;;;;;;19.23;7.28;;;;;;;13.80;87.07;101614.41;5098854;28;20047;-51
2022/10/30 01:52:26;;;;;;;16.65;7.78;;;;;;;13.79;86.71;101616.25;5118903;28;20016;-52
2022/10/30 01:55:03;;;;;;;16.33;8.00;;;;;;;13.77;87.33;101618.19;5111556;28;20083;-53
2022/10/30 01:57:38;;;;;;;18.35;7.38;;;;;;;13.75;87.24;101621.94;5116032;28;20040;-51
2022/10/30 02:00:06;;;;;;;14.93;7.50;;;;;;;13.72;87.73;101619.50;5107316;28;20024;-51
2022/10/30 02:02:32;;;;;;;14.47;7.73;;;;;;;13.70;87.32;101616.94;5119387;28;20051;-51
2022/10/30 02:04:58;;;;;;;14.73;7.97;;;;;;;13.68;87.72;101625.06;5118439;28;20285;-52
2022/10/30 02:07:23;;;;;;;14.88;7.13;;;;;;;13.67;87.59;101622.50;5119074;28;20084;-51
2022/10/30 02:09:53;;;;;;;10.95;7.65;;;;;;;13.66;87.40;101632.34;5119092;28;20018;-50
2022/10/30 02:12:20;;;;;;;16.00;7.18;;;;;;;13.62;87.43;101625.56;5115986;28;20088;-52
2022/10/30 02:14:49;;;;;;;15.50;7.82;;;;;;;13.61;87.62;101623.00;5119371;28;20012;-51
2022/10/30 02:17:15;;;;;;;16.23;7.30;;;;;;;13.61;88.25;101618.50;5119675;28;20007;-52
2022/10/30 02:19:41;;;;;;;18.08;7.88;;;;;;;13.60;88.74;101618.63;5119347;28;20024;-51
2022/10/30 02:22:07;;;;;;;33.80;7.88;;;;;;;13.60;88.75;101621.28;5119006;28;20035;-52
2022/10/30 02:24:32;;;;;;;17.02;7.95;;;;;;;13.57;88.00;101632.19;5108772;28;20029;-52
2022/10/30 02:26:58;;;;;;;17.63;7.90;;;;;;;13.56;88.52;101631.34;5116678;28;20028;-52
2022/10/30 02:29:23;;;;;;;19.52;7.70;;;;;;;13.53;88.08;101636.94;5119162;28;20015;-51
2022/10/30 02:31:48;;;;;;;15.20;7.25;;;;;;;13.54;88.91;101635.09;5118478;28;20035;-53
2022/10/30 02:34:14;;;;;;;14.05;7.63;;;;;;;13.51;88.70;101637.03;5118888;28;20036;-49
2022/10/30 02:36:40;;;;;;;14.73;8.40;;;;;;;13.49;88.90;101633.66;5119140;28;20056;-52
2022/10/30 02:39:05;;;;;;;16.40;7.97;;;;;;;13.47;88.60;101632.06;5118858;28;20020;-51
2022/10/30 02:41:31;;;;;;;16.88;8.02;;;;;;;13.46;88.80;101641.03;5118655;28;20032;-52
2022/10/30 02:43:57;;;;;;;16.02;7.55;;;;;;;13.46;89.05;101644.56;5118701;28;20044;-49
2022/10/30 02:46:22;;;;;;;22.85;8.07;;;;;;;13.41;88.93;101648.56;5118545;28;20036;-52
2022/10/30 02:48:47;;;;;;;16.27;7.82;;;;;;;13.40;88.63;101642.34;5118415;28;20079;-50
2022/10/30 02:51:12;;;;;;;17.67;7.95;;;;;;;13.40;89.49;101641.50;5118822;28;20040;-52
2022/10/30 02:53:38;;;;;;;19.63;8.23;;;;;;;13.37;89.57;101639.06;5118560;28;20028;-53
2022/10/30 02:56:05;;;;;;;15.55;7.10;;;;;;;13.33;89.57;101639.28;5118314;28;20050;-50
2022/10/30 02:58:30;;;;;;;14.88;7.28;;;;;;;13.32;89.85;101640.28;5118477;28;20037;-52
2022/10/30 03:00:55;;;;;;;18.05;7.85;;;;;;;13.32;89.83;101639.41;5118371;28;20016;-51
2022/10/30 03:03:20;;;;;;;14.63;6.93;;;;;;;13.29;90.11;101643.13;5108244;28;20038;-53
2022/10/30 03:05:46;;;;;;;18.60;7.63;;;;;;;13.25;90.75;101640.81;5118519;28;20023;-49
2022/10/30 03:08:11;;;;;;;14.40;7.73;;;;;;;13.26;90.58;101635.34;5118177;28;20376;-52
2022/10/30 03:10:37;;;;;;;16.48;8.25;;;;;;;13.24;91.11;101628.41;5118488;28;20273;-53
2022/10/30 03:13:02;;;;;;;17.63;8.52;;;;;;;13.21;91.08;101623.34;5118448;28;20031;-49
2022/10/30 03:15:27;;;;;;;16.63;7.68;;;;;;;13.20;91.12;101633.16;5117999;28;20012;-51
2022/10/30 03:17:52;;;;;;;16.95;8.02;;;;;;;13.20;91.20;101621.63;5118289;28;20051;-48
2022/10/30 03:20:18;;;;;;;13.52;7.38;;;;;;;13.17;91.55;101622.69;5118317;28;20016;-51
2022/10/30 03:22:43;;;;;;;16.08;8.00;;;;;;;13.15;91.62;101619.31;5117892;28;20051;-49
2022/10/30 03:25:09;;;;;;;16.02;8.05;;;;;;;13.16;91.33;101626.34;5118235;28;20016;-51
2022/10/30 03:27:34;;;;;;;19.27;7.10;;;;;;;13.13;91.21;101624.75;5118269;28;20027;-49
2022/10/30 03:29:59;;;;;;;17.35;7.55;;;;;;;13.14;91.72;101629.13;5114640;28;20113;-53
2022/10/30 03:32:25;;;;;;;13.07;7.55;;;;;;;13.15;91.93;101627.31;5104980;28;20044;-52
2022/10/30 03:34:50;;;;;;;22.77;8.25;;;;;;;13.15;92.10;101624.63;5118316;28;20004;-49
2022/10/30 03:37:15;;;;;;;12.93;7.83;;;;;;;13.13;92.40;101624.75;5118067;28;20017;-52
2022/10/30 03:39:40;;;;;;;18.47;8.13;;;;;;;13.12;91.95;101622.19;5117930;28;20288;-50
2022/10/30 03:42:05;;;;;;;17.90;8.67;;;;;;;13.11;92.17;101624.03;5118126;28;20311;-52
2022/10/30 03:44:31;;;;;;;20.23;8.13;;;;;;;13.10;91.79;101622.31;5118083;28;20297;-50
2022/10/30 03:46:57;;;;;;;17.90;7.53;;;;;;;13.11;91.86;101626.69;5118028;28;20321;-53
2022/10/30 03:49:22;;;;;;;19.83;7.70;;;;;;;13.09;92.36;101639.31;5117503;28;20044;-54
2022/10/30 03:51:47;;;;;;;16.08;7.63;;;;;;;13.08;91.27;101640.25;5117870;28;20008;-51
2022/10/30 03:54:12;;;;;;;18.73;7.40;;;;;;;13.08;92.15;101639.41;5117742;28;20040;-52
2022/10/30 03:56:38;;;;;;;17.33;7.83;;;;;;;13.06;92.33;101631.53;5118013;28;20274;-50
2022/10/30 03:59:03;;;;;;;15.23;7.90;;;;;;;13.06;91.89;101636.84;5118045;28;20284;-49
2022/10/30 04:01:28;;;;;;;17.23;7.37;;;;;;;13.02;92.01;101643.38;5117142;28;20038;-49
2022/10/30 04:03:53;;;;;;;13.60;8.07;;;;;;;13.04;92.24;101640.59;5117949;28;20316;-50
2022/10/30 04:06:19;;;;;;;15.50;8.27;;;;;;;13.04;92.56;101641.47;5117908;28;20035;-50
2022/10/30 04:08:44;;;;;;;18.83;7.93;;;;;;;13.01;92.19;101641.69;5117830;28;20027;-51
2022/10/30 04:11:12;;;;;;;18.40;8.40;;;;;;;13.00;92.30;101650.63;5116834;28;20042;-48
2022/10/30 04:13:38;;;;;;;16.75;8.05;;;;;;;13.00;92.37;101650.63;5117664;28;20017;-51
2022/10/30 04:16:03;;;;;;;20.30;7.65;;;;;;;13.01;92.87;101640.84;5117392;28;20019;-51
2022/10/30 04:18:29;;;;;;;14.55;7.30;;;;;;;12.98;92.41;101639.25;5113545;28;20000;-50
2022/10/30 04:20:54;;;;;;;19.67;8.07;;;;;;;12.96;93.13;101634.03;5102222;28;20050;-50
2022/10/30 04:23:20;;;;;;;15.70;7.47;;;;;;;12.95;92.22;101636.78;5119806;28;20028;-50
2022/10/30 04:25:47;;;;;;;24.00;8.32;;;;;;;12.93;93.09;101641.41;5117467;28;20023;-51
2022/10/30 04:28:12;;;;;;;18.17;8.07;;;;;;;12.91;92.42;101638.00;5106795;28;20035;-49
2022/10/30 04:30:38;;;;;;;19.90;7.45;;;;;;;12.92;92.49;101639.69;5121050;28;20013;-52
2022/10/30 04:33:06;;;;;;;19.63;7.63;;;;;;;12.88;92.94;101641.72;5121423;28;20012;-51
2022/10/30 04:35:33;;;;;;;16.20;7.93;;;;;;;12.89;93.16;101642.56;5121151;28;20020;-50
2022/10/30 04:38:00;;;;;;;19.77;7.95;;;;;;;12.89;94.04;101639.91;5113405;28;20037;-49
2022/10/30 04:40:29;;;;;;;16.58;8.20;;;;;;;12.86;93.76;101627.66;5121162;28;20040;-51
2022/10/30 04:42:55;;;;;;;20.98;8.02;;;;;;;12.85;94.33;101628.63;5121026;28;20040;-52
2022/10/30 04:45:20;;;;;;;21.65;9.23;;;;;;;12.86;94.87;101626.81;5120965;28;20026;-51
2022/10/30 04:47:45;;;;;;;18.45;8.52;;;;;;;12.84;95.35;101605.63;5113944;28;20124;-53
2022/10/30 04:50:11;;;;;;;21.23;9.35;;;;;;;12.84;95.48;101608.28;5115440;28;20040;-52
2022/10/30 04:52:37;;;;;;;21.75;8.65;;;;;;;12.84;95.44;101608.28;5120961;28;20023;-53
2022/10/30 04:55:03;;;;;;;18.52;8.93;;;;;;;12.85;95.42;101604.63;5120282;28;20020;-51
2022/10/30 04:57:30;;;;;;;19.25;8.10;;;;;;;12.86;94.89;101605.50;5120842;28;20031;-52
2022/10/30 04:59:55;;;;;;;25.35;8.45;;;;;;;12.87;94.81;101607.19;5120836;28;20038;-53
2022/10/30 05:02:20;;;;;;;19.58;8.30;;;;;;;12.86;94.66;101609.00;5120661;28;20016;-51
2022/10/30 05:04:46;;;;;;;23.27;8.53;;;;;;;12.88;95.11;101606.22;5120316;28;20020;-50
2022/10/30 05:07:12;;;;;;;14.90;8.30;;;;;;;12.86;94.50;101608.16;5107461;28;20297;-49
2022/10/30 05:09:37;;;;;;;17.55;8.25;;;;;;;12.86;94.48;101613.50;5120424;28;20031;-49
2022/10/30 05:12:03;;;;;;;19.67;8.48;;;;;;;12.86;94.62;101611.66;5120245;28;20027;-50
2022/10/30 05:14:29;;;;;;;20.05;7.97;;;;;;;12.85;94.59;101604.63;5120575;28;20024;-50
2022/10/30 05:16:54;;;;;;;16.55;7.22;;;;;;;12.85;94.44;101609.13;5120270;28;20016;-53
2022/10/30 05:19:20;;;;;;;13.13;7.57;;;;;;;12.84;94.24;101607.41;5119911;28;20023;-51
2022/10/30 05:21:45;;;;;;;19.98;8.50;;;;;;;12.83;94.34;101613.72;5120371;28;20325;-52
2022/10/30 05:24:10;;;;;;;18.10;8.00;;;;;;;12.82;93.98;101614.66;5119615;28;20047;-50
2022/10/30 05:26:36;;;;;;;13.90;8.13;;;;;;;12.81;94.03;101613.84;5120183;28;20277;-50
2022/10/30 05:29:01;;;;;;;17.48;7.85;;;;;;;12.81;94.16;101621.00;5111470;28;20024;-50
2022/10/30 05:31:26;;;;;;;15.75;7.68;;;;;;;12.79;94.25;101631.75;5120147;28;20040;-53
2022/10/30 05:33:52;;;;;;;21.87;8.13;;;;;;;12.77;93.84;101639.00;5107379;28;20040;-51
2022/10/30 05:36:17;;;;;;;18.30;8.23;;;;;;;12.75;93.92;101627.59;5102761;28;20278;-52
2022/10/30 05:38:42;;;;;;;13.83;7.57;;;;;;;12.74;94.87;101618.75;5119891;28;20043;-50
2022/10/30 05:41:08;;;;;;;15.75;7.50;;;;;;;12.72;94.69;101619.81;5106601;28;20315;-52
2022/10/30 05:43:33;;;;;;;14.23;7.60;;;;;;;12.70;93.96;101621.75;5119792;28;20020;-53
2022/10/30 05:45:58;;;;;;;16.33;8.18;;;;;;;12.69;93.74;101620.03;5119891;28;20050;-52
2022/10/30 05:48:23;;;;;;;15.32;7.18;;;;;;;12.65;93.77;101624.75;5119280;28;20040;-50
2022/10/30 05:50:49;;;;;;;15.30;7.60;;;;;;;12.64;93.51;101617.75;5118568;28;20020;-49
2022/10/30 05:53:14;;;;;;;16.98;7.75;;;;;;;12.61;93.07;101615.28;5112516;28;20273;-51
2022/10/30 05:55:39;;;;;;;13.70;7.60;;;;;;;12.55;92.85;101615.72;5119249;28;20020;-51
2022/10/30 05:58:05;;;;;;;15.88;7.82;;;;;;;12.53;93.20;101617.66;5119622;28;20075;-50
2022/10/30 06:00:34;;;;;;;24.90;8.45;;;;;;;12.50;92.99;101616.06;5119191;28;20024;-51
2022/10/30 06:03:01;;;;;;;18.73;7.93;;;;;;;12.46;93.03;101613.75;5120094;28;20050;-49
2022/10/30 06:05:28;;;;;;;14.05;7.35;;;;;;;12.40;92.97;101629.19;5118996;28;20032;-49
2022/10/30 06:07:54;;;;;;;17.23;7.93;;;;;;;12.39;93.08;101618.66;5132071;28;20059;-52
2022/10/30 06:10:20;;;;;;;13.35;7.35;;;;;;;12.36;92.92;101619.72;5116497;28;20070;-52
2022/10/30 06:12:54;;;;;;;16.10;8.00;;;;;;;12.31;93.29;101619.22;5119270;28;20083;-52
2022/10/30 06:15:19;;;;;;;14.18;7.15;;;;;;;12.32;93.28;101620.91;5126816;28;20031;-52
2022/10/30 06:17:45;;;;;;;17.40;8.15;;;;;;;12.27;93.25;101623.03;5118733;28;20076;-53
2022/10/30 06:20:10;;;;;;;17.08;7.47;;;;;;;12.27;92.92;101620.38;5126272;28;20027;-53
2022/10/30 06:22:35;;;;;;;17.42;7.93;;;;;;;12.21;92.72;101612.84;5126981;28;20020;-50
2022/10/30 06:25:00;;;;;;;15.38;8.27;;;;;;;12.16;93.08;101610.50;5130227;28;20057;-50
2022/10/30 06:27:26;;;;;;;17.35;7.97;;;;;;;12.12;93.57;101609.00;5131308;28;20019;-52
2022/10/30 06:29:53;;;;;;;15.80;8.18;;;;;;;12.07;93.33;101604.97;5133738;28;20015;-47
2022/10/30 06:32:19;;;;;;;15.02;8.35;;;;;;;12.02;93.90;101610.63;5114825;28;20038;-52
2022/10/30 06:34:44;;;;;;;15.25;8.48;;;;;;;12.01;94.09;101620.41;5127473;28;20032;-47
2022/10/30 06:37:10;;;;;;;17.00;7.95;;;;;;;12.00;94.71;101610.72;5133677;28;20023;-50
2022/10/30 06:39:35;;;;;;;17.15;7.47;;;;;;;11.99;94.74;101613.47;5129220;28;20016;-50
2022/10/30 06:42:00;;;;;;;13.37;8.10;;;;;;;11.99;94.82;101609.03;5124752;28;20024;-51
2022/10/30 06:44:26;;;;;;;18.33;8.32;;;;;;;11.99;94.83;101614.34;5117896;28;20282;-51
2022/10/30 06:46:52;;;;;;;11.45;7.80;;;;;;;11.96;95.41;101622.56;5121608;28;20089;-53
2022/10/30 06:49:17;;;;;;;14.15;8.35;;;;;;;11.98;94.51;101622.44;5120420;28;20040;-51
2022/10/30 06:51:43;;;;;;;14.57;8.18;;;;;;;11.96;94.00;101622.56;5123434;28;20019;-52
2022/10/30 06:54:08;;;;;;;15.43;8.70;;;;;;;11.94;94.68;101619.16;5119797;28;20064;-47
2022/10/30 06:56:33;;;;;;;18.20;8.73;;;;;;;11.95;95.10;101607.53;5123485;28;20023;-53
2022/10/30 06:58:58;;;;;;;15.23;8.50;;;;;;;11.92;95.46;101596.25;5121732;28;20024;-51
2022/10/30 07:01:24;;;;;;;16.25;8.63;;;;;;;11.91;95.26;101603.41;5117480;28;20023;-52
2022/10/30 07:03:49;;;;;;;17.03;8.63;;;;;;;11.93;96.07;101589.97;5112885;28;20040;-54
2022/10/30 07:06:14;;;;;;;19.23;9.77;;;;;;;11.92;96.78;101593.59;5119691;28;20294;-53
2022/10/30 07:08:39;;;;;;;20.48;9.40;;;;;;;11.93;96.60;101596.16;5122190;28;20297;-53
2022/10/30 07:11:05;;;;;;;21.85;8.77;;;;;;;11.94;97.11;101595.19;5115220;28;20073;-53
2022/10/30 07:13:30;;;;;;;17.77;8.60;;;;;;;11.95;97.64;101594.22;5111627;28;20037;-52
2022/10/30 07:15:57;;;;;;;18.42;9.15;;;;;;;11.95;97.09;101594.22;5131045;28;20050;-51
2022/10/30 07:18:23;;;;;;;23.80;9.82;;;;;;;11.99;97.32;101598.38;5120979;28;20007;-51
2022/10/30 07:20:53;;;;;;;16.73;7.82;;;;;;;12.00;97.08;101600.06;5120210;28;20062;-52
2022/10/30 07:23:18;;;;;;;19.38;9.07;;;;;;;12.02;97.06;101603.50;5116109;28;20013;-53
2022/10/30 07:25:43;;;;;;;21.05;9.27;;;;;;;12.03;97.02;101599.00;5119412;28;20088;-53
2022/10/30 07:28:09;;;;;;;20.40;8.70;;;;;;;12.05;97.65;101610.41;5118530;28;20036;-51
2022/10/30 07:30:34;;;;;;;16.30;8.95;;;;;;;12.07;97.66;101594.31;5115906;28;20024;-50
2022/10/30 07:33:02;;;;;;;16.17;7.95;;;;;;;12.06;96.87;101606.78;5114526;28;20043;-51
2022/10/30 07:35:28;;;;;;;13.20;8.45;;;;;;;12.09;96.87;101611.03;5114577;28;20035;-51
2022/10/30 07:37:53;;;;;;;19.88;8.38;;;;;;;12.10;97.15;101616.25;5111527;28;20008;-49
2022/10/30 07:40:20;;;;;;;14.60;8.13;;;;;;;12.14;97.81;101609.75;5117176;28;20018;-50
2022/10/30 07:42:45;;;;;;;22.23;9.60;;;;;;;12.16;98.96;101607.84;5126829;28;20015;-52
2022/10/30 07:45:11;;;;;;;21.08;9.10;;;;;;;12.24;98.86;101599.31;5123004;28;20456;-49
2022/10/30 07:47:39;;;;;;;14.48;8.63;;;;;;;12.29;99.46;101602.50;5101407;28;20036;-50
2022/10/30 07:50:04;;;;;;;20.75;9.50;;;;;;;12.32;99.22;101599.63;5126048;28;20100;-50
2022/10/30 07:52:31;;;;;;;20.70;9.57;;;;;;;12.38;99.53;101593.81;5116312;28;20064;-50
2022/10/30 07:54:56;;;;;;;19.50;9.45;;;;;;;12.46;99.49;101598.59;5116904;28;20020;-52
2022/10/30 07:57:22;;;;;;;16.92;9.18;;;;;;;12.54;99.37;101614.00;5116300;28;20031;-48
2022/10/30 07:59:47;;;;;;;16.40;8.38;;;;;;;12.61;99.46;101617.09;5115192;28;20020;-49
2022/10/30 08:02:12;;;;;;;17.42;9.45;;;;;;;12.69;99.27;101609.38;5115771;28;20036;-49
2022/10/30 08:04:37;;;;;;;21.17;9.35;;;;;;;12.82;99.61;101604.00;5121299;28;20012;-51
2022/10/30 08:07:03;;;;;;;18.63;8.57;;;;;;;12.88;98.98;101600.91;5119426;28;20091;-50
2022/10/30 08:09:28;;;;;;;17.90;8.90;;;;;;;12.98;98.41;101603.72;5120243;28;20036;-50
2022/10/30 08:11:53;;;;;;;20.50;8.43;;;;;;;13.08;98.14;101596.75;5117160;28;20318;-50
2022/10/30 08:14:19;;;;;;;17.67;8.53;;;;;;;13.15;98.02;101595.31;5115679;28;20308;-52
2022/10/30 08:16:45;;;;;;;17.90;9.02;;;;;;;13.24;97.92;101599.09;5119131;28;20353;-51
2022/10/30 08:19:10;;;;;;;13.27;8.10;;;;;;;13.32;97.91;101586.03;5118351;28;20055;-54
2022/10/30 08:21:35;;;;;;;19.52;9.20;;;;;;;13.38;97.45;101584.75;5120988;28;20364;-53
2022/10/30 08:24:00;;;;;;;14.53;7.70;;;;;;;13.46;97.19;101590.34;5102396;28;20055;-53
2022/10/30 08:26:26;;;;;;;15.00;8.43;;;;;;;13.54;96.56;101598.59;5118937;28;20285;-52
2022/10/30 08:28:51;;;;;;;19.97;8.57;;;;;;;13.62;96.73;101603.34;5114505;28;20032;-51
2022/10/30 08:31:16;;;;;;;15.63;7.83;;;;;;;13.67;96.49;101611.84;5120653;28;20286;-49
2022/10/30 08:33:41;;;;;;;18.88;7.60;;;;;;;13.74;96.59;101617.53;5116738;28;20298;-50
2022/10/30 08:36:07;;;;;;;21.07;8.40;;;;;;;13.78;95.65;101605.69;5126152;28;20051;-50
2022/10/30 08:38:32;;;;;;;19.45;8.18;;;;;;;13.88;95.53;101606.66;5119433;28;20290;-49
2022/10/30 08:41:00;;;;;;;17.60;8.53;;;;;;;13.94;94.66;101597.28;5120800;28;20058;-49
2022/10/30 08:43:26;;;;;;;22.00;8.13;;;;;;;13.99;94.82;101606.66;5110028;28;20290;-50
2022/10/30 08:45:51;;;;;;;16.83;7.47;;;;;;;14.04;94.14;101599.13;5105712;28;20049;-49
2022/10/30 08:48:16;;;;;;;16.35;7.63;;;;;;;14.10;94.63;101607.63;5129592;28;20027;-50
2022/10/30 08:50:42;;;;;;;15.00;7.73;;;;;;;14.16;93.95;101599.97;5129274;28;20019;-49
2022/10/30 08:53:13;;;;;;;18.38;7.32;;;;;;;14.25;93.98;101612.59;5123862;28;20296;-48
2022/10/30 08:55:38;;;;;;;19.48;8.10;;;;;;;14.35;94.35;101614.53;5121566;28;20015;-51
2022/10/30 08:58:04;;;;;;;19.77;7.82;;;;;;;14.46;93.94;101605.66;5123520;28;20062;-50
2022/10/30 09:00:30;;;;;;;12.25;7.30;;;;;;;14.60;93.72;101608.94;5118605;28;20023;-48
2022/10/30 09:02:55;;;;;;;15.80;7.85;;;;;;;14.70;93.50;101601.00;5119656;28;20031;-49
2022/10/30 09:05:20;;;;;;;14.52;6.88;;;;;;;14.86;93.84;101603.25;5124324;28;20015;-48
2022/10/30 09:07:46;;;;;;;16.05;7.15;;;;;;;15.07;92.55;101599.78;5129557;28;20027;-50
2022/10/30 09:10:12;;;;;;;14.68;7.72;;;;;;;15.23;91.97;101589.47;5120863;28;20039;-51
2022/10/30 09:12:38;;;;;;;17.15;7.60;;;;;;;15.40;90.00;101584.53;5120682;28;20023;-49
2022/10/30 09:15:04;;;;;;;16.92;7.40;;;;;;;15.60;89.32;101580.13;5125291;28;20031;-51
2022/10/30 09:17:30;;;;;;;20.90;7.82;;;;;;;15.79;88.25;101582.94;5127397;28;20039;-49
2022/10/30 09:19:55;;;;;;;13.30;6.68;;;;;;;16.00;87.46;101574.00;5136310;28;20058;-52
2022/10/30 09:22:21;;;;;;;14.30;6.50;;;;;;;16.12;86.82;101572.06;5128245;28;20016;-50
2022/10/30 09:24:46;;;;;;;16.90;6.85;;;;;;;16.22;86.76;101576.50;5133796;28;20108;-49
2022/10/30 09:27:11;;;;;;;14.60;6.53;;;;;;;16.31;85.59;101577.50;5135302;28;20011;-49
2022/10/30 09:29:37;;;;;;;23.00;6.55;;;;;;;16.45;84.86;101574.44;5134684;28;20020;-49
2022/10/30 09:32:07;;;;;;;17.87;7.53;;;;;;;16.59;84.53;101581.22;5130755;28;20040;-52
2022/10/30 09:34:33;;;;;;;16.60;6.22;;;;;;;16.73;82.78;101573.75;5118715;28;20275;-52
2022/10/30 09:36:58;;;;;;;11.30;6.30;;;;;;;16.89;82.47;101582.13;5133074;28;20016;-49
2022/10/30 09:39:24;;;;;;;17.40;6.33;;;;;;;17.11;82.35;101581.00;5111605;28;20048;-49
2022/10/30 09:42:01;;;;;;;17.95;6.22;;;;;;;17.28;82.86;101583.94;5117266;28;20273;-50
2022/10/30 09:44:36;;;;;;;13.50;5.63;;;;;;;17.31;81.08;101589.88;5124520;28;20039;-52
2022/10/30 09:47:13;;;;;;;13.80;5.78;;;;;;;17.35;79.79;101595.78;5116601;28;20072;-49
2022/10/30 09:49:50;;;;;;;20.90;6.45;;;;;;;17.42;80.74;101606.81;5112024;28;20032;-50
2022/10/30 09:52:50;;;;;;;12.15;6.68;;;;;;;17.48;80.53;101615.13;5116210;28;20016;-47
2022/10/30 09:55:28;;;;;;;15.38;6.07;;;;;;;17.56;80.03;101617.94;5105613;28;20039;-51
2022/10/30 09:58:01;;;;;;;19.95;6.13;;;;;;;17.63;81.82;101617.38;5119902;28;20023;-47
2022/10/30 10:00:36;;;;;;;17.60;7.45;;;;;;;17.64;80.59;101613.72;5117552;28;20020;-50
2022/10/30 10:03:20;;;;;;;14.88;6.50;;;;;;;17.64;78.54;101619.09;5119243;28;20034;-51
2022/10/30 10:05:58;;;;;;;16.50;8.20;;;;;;;17.70;79.43;101615.81;5118933;28;20037;-51
2022/10/30 10:08:36;;;;;;;15.65;7.10;;;;;;;17.82;78.33;101608.41;5114748;28;20051;-49
2022/10/30 10:11:14;;;;;;;18.58;6.50;;;;;;;17.95;79.53;101608.97;5113643;28;20037;-51
2022/10/30 10:14:00;;;;;;;20.08;6.47;;;;;;;18.09;78.63;101607.66;5124137;28;20054;-49
2022/10/30 10:16:30;;;;;;;14.73;6.65;;;;;;;18.26;76.70;101606.00;5123305;28;20104;-49
2022/10/30 10:19:19;;;;;;;15.95;6.90;;;;;;;18.42;76.47;101605.38;5117149;28;20054;-48
2022/10/30 10:21:57;;;;;;;14.05;6.10;;;;;;;18.48;76.05;101604.75;5047807;28;20024;-50
2022/10/30 10:24:37;;;;;;;18.35;6.32;;;;;;;18.56;74.36;101604.00;5112706;28;20028;-52
2022/10/30 10:27:15;;;;;;;16.45;5.90;;;;;;;18.66;74.06;101591.31;5118438;28;20012;-51
2022/10/30 10:30:02;;;;;;;15.60;6.38;;;;;;;18.75;74.61;101597.63;5119187;28;20036;-49
2022/10/30 10:32:27;;;;;;;13.05;6.03;;;;;;;18.86;74.15;101594.75;5120641;28;20072;-49
2022/10/30 10:35:22;;;;;;;14.27;5.45;;;;;;;19.00;74.10;101593.34;5118723;28;20035;-49
2022/10/30 10:38:25;;;;;;;19.88;6.15;;;;;;;19.15;75.07;101586.44;5099832;28;20058;-51
2022/10/30 10:41:11;;;;;;;17.15;6.00;;;;;;;19.30;74.24;101580.47;5110543;28;20057;-49
2022/10/30 10:43:58;;;;;;;11.18;5.85;;;;;;;19.41;71.47;101582.91;5120128;28;20030;-48
2022/10/30 10:47:01;;;;;;;15.07;5.68;;;;;;;19.54;72.58;101582.50;5119459;28;20020;-51
2022/10/30 10:49:53;;;;;;;13.70;6.10;;;;;;;19.76;70.33;101586.53;5114312;28;20054;-53
2022/10/30 10:52:30;;;;;;;17.75;6.22;;;;;;;19.89;70.58;101583.41;5111541;28;20032;-50
2022/10/30 10:55:01;;;;;;;16.02;6.18;;;;;;;20.04;69.54;101589.88;5116616;28;20051;-49
2022/10/30 10:57:31;;;;;;;16.75;6.20;;;;;;;20.09;68.41;101592.94;5119922;28;20055;-50
2022/10/30 11:00:13;;;;;;;16.50;6.13;;;;;;;20.20;70.27;101599.03;5117664;28;20050;-51
2022/10/30 11:02:44;;;;;;;19.80;6.63;;;;;;;20.21;67.65;101598.88;5097012;28;20036;-47
2022/10/30 11:05:24;;;;;;;18.55;6.13;;;;;;;20.26;67.42;101587.59;5116823;28;20035;-48
2022/10/30 11:07:50;;;;;;;13.70;5.55;;;;;;;20.32;66.19;101577.00;5109698;28;20038;-50
2022/10/30 11:10:18;;;;;;;19.15;6.85;;;;;;;20.41;67.17;101580.56;5116939;28;20024;-47
2022/10/30 11:12:43;;;;;;;20.58;6.40;;;;;;;20.55;65.74;101575.53;5117359;28;20016;-51
2022/10/30 11:15:38;;;;;;;15.57;6.00;;;;;;;20.60;67.31;101573.19;5114787;28;20037;-50
2022/10/30 11:18:06;;;;;;;15.18;5.50;;;;;;;20.65;65.19;101565.47;5118890;28;20032;-48
2022/10/30 11:20:39;;;;;;;22.08;6.18;;;;;;;20.72;65.09;101571.03;5117419;28;20027;-49
2022/10/30 11:23:32;;;;;;;13.00;5.47;;;;;;;20.78;67.20;101570.38;5111751;28;20037;-49